Aboyne, United Kingdom

3:48 AM BST on April 26, 2015 (GMT +0100)
ISCOTLAN34 | | Change Station
CLOSE
Current Station
Personal Weather Station
Location: Aboyne, SCOTLAND
Elevation: 680 ft
Nearby Weather Stations

Elev 680 ft 57.04 °N, 2.72 °W | Updated 6 seconds ago

Scattered Clouds
Scattered Clouds
35.2 °F
Feels Like 35 °F
N
3.0
Wind Variable Wind from West
Gusts 10.0 mph

Today
High -- | Low -- °F
--% Chance of Precip.
Yesterday
High -- | Low -- °F
Precip. -- in
5:36 AM 8:43 PM
Waxing Crescent, 51% visible
Pressure 29.71 in
Visibility 6.2 miles
Clouds Scattered Clouds 2400 ft
Windchill 35 °F
Dew Point 30 °F
Humidity 80%
Rainfall 0.00 in
Snow Depth Not available.
UV 0.0 out of 12
Pollen Not available.
Air Quality Not available.
Flu Activity Not available.
METAR EGPD 260220Z AUTO 25005KT 220V280 9999 SCT024/// 02/M01 Q1006

More Conditions Fewer Conditions

Pressure 29.71 in
Visibility 6.2 miles
Clouds Scattered Clouds 2400 ft
Windchill 35 °F
Dew Point 30 °F
Humidity 80%
Rainfall 0.00 in
Snow Depth Not available.
UV 0.0 out of 12
Pollen Not available.
Air Quality Not available.
Flu Activity Not available.
METAR EGPD 260220Z AUTO 25005KT 220V280 9999 SCT024/// 02/M01 Q1006

More Conditions Fewer Conditions

10-Day Weather Forecast

Almanac

Astronomy

Apr. 26, 2015 Rise Set
Actual Time
Civil Twilight
Nautical Twilight
Astronomical Twilight
Moon
Length of Visible Light
Length of Day
Tomorrow will be .
, % of the Moon is Illuminated

Today's Extremes

Country Highs Country Lows

Community

WunderPhotos

Upload Photos

1,816,909 photos uploaded!

WunderBlogs® & News

Nearby

Air Quality

  Air Quality AQ Index Pollutant
Not available.

Snow Depth

Station Depth Elevation

Earthquake Activity

City Distance Mag. Time & Date
Minimum magnitude displayed is 2.5.

Coastal Water Temperatures

Place Temperature

Stations

Nearby Weather Stations

Station Location Temp. Windchill Dew Point Humidity Wind Precip. Elev Updated Type